sensor_id;sensor_type;location;lat;lon;timestamp;temperature;humidity
20155;DHT22;10238;49.556;10.956;2023-04-25T00:01:39;8.40;99.90
20155;DHT22;10238;49.556;10.956;2023-04-25T00:04:27;8.40;99.90
20155;DHT22;10238;49.556;10.956;2023-04-25T00:07:16;8.40;99.90
20155;DHT22;10238;49.556;10.956;2023-04-25T00:10:04;8.40;99.90
20155;DHT22;10238;49.556;10.956;2023-04-25T00:12:54;8.40;99.90
20155;DHT22;10238;49.556;10.956;2023-04-25T00:15:43;8.40;99.90
20155;DHT22;10238;49.556;10.956;2023-04-25T00:18:34;8.40;99.90
20155;DHT22;10238;49.556;10.956;2023-04-25T00:21:22;8.40;99.90
20155;DHT22;10238;49.556;10.956;2023-04-25T00:24:10;8.40;99.90
20155;DHT22;10238;49.556;10.956;2023-04-25T00:26:57;8.40;99.90
20155;DHT22;10238;49.556;10.956;2023-04-25T00:29:47;8.50;99.90
20155;DHT22;10238;49.556;10.956;2023-04-25T00:32:35;8.40;99.90
20155;DHT22;10238;49.556;10.956;2023-04-25T00:35:24;8.40;99.90
20155;DHT22;10238;49.556;10.956;2023-04-25T00:38:11;8.40;99.90
20155;DHT22;10238;49.556;10.956;2023-04-25T00:40:59;8.40;99.90
20155;DHT22;10238;49.556;10.956;2023-04-25T00:43:47;8.40;99.90
20155;DHT22;10238;49.556;10.956;2023-04-25T00:46:38;8.40;99.90
20155;DHT22;10238;49.556;10.956;2023-04-25T00:49:26;8.40;99.90
20155;DHT22;10238;49.556;10.956;2023-04-25T00:52:14;8.40;99.90
20155;DHT22;10238;49.556;10.956;2023-04-25T00:55:02;8.40;99.90
20155;DHT22;10238;49.556;10.956;2023-04-25T00:57:51;8.40;99.90
20155;DHT22;10238;49.556;10.956;2023-04-25T01:00:39;8.30;99.90
20155;DHT22;10238;49.556;10.956;2023-04-25T01:03:31;8.30;99.90
20155;DHT22;10238;49.556;10.956;2023-04-25T01:06:21;8.30;99.90
20155;DHT22;10238;49.556;10.956;2023-04-25T01:09:09;8.30;99.90
20155;DHT22;10238;49.556;10.956;2023-04-25T01:11:57;8.30;99.90
20155;DHT22;10238;49.556;10.956;2023-04-25T01:14:46;8.30;99.90
20155;DHT22;10238;49.556;10.956;2023-04-25T01:17:38;8.30;99.90
20155;DHT22;10238;49.556;10.956;2023-04-25T01:20:32;8.30;99.90
20155;DHT22;10238;49.556;10.956;2023-04-25T01:23:21;8.30;99.90
20155;DHT22;10238;49.556;10.956;2023-04-25T01:26:11;8.30;99.90
20155;DHT22;10238;49.556;10.956;2023-04-25T01:28:59;8.30;99.90
20155;DHT22;10238;49.556;10.956;2023-04-25T01:31:47;8.30;99.90
20155;DHT22;10238;49.556;10.956;2023-04-25T01:34:36;8.30;99.90
20155;DHT22;10238;49.556;10.956;2023-04-25T01:37:24;8.30;99.90
20155;DHT22;10238;49.556;10.956;2023-04-25T01:40:13;8.30;99.90
20155;DHT22;10238;49.556;10.956;2023-04-25T01:43:01;8.30;99.90
20155;DHT22;10238;49.556;10.956;2023-04-25T01:45:50;8.20;99.90
20155;DHT22;10238;49.556;10.956;2023-04-25T01:48:38;8.20;99.90
20155;DHT22;10238;49.556;10.956;2023-04-25T01:51:26;8.20;99.90
20155;DHT22;10238;49.556;10.956;2023-04-25T01:54:14;8.10;99.90
20155;DHT22;10238;49.556;10.956;2023-04-25T01:57:03;8.20;99.90
20155;DHT22;10238;49.556;10.956;2023-04-25T01:59:51;8.20;99.90
20155;DHT22;10238;49.556;10.956;2023-04-25T02:02:40;8.20;99.90
20155;DHT22;10238;49.556;10.956;2023-04-25T02:05:34;8.10;99.90
20155;DHT22;10238;49.556;10.956;2023-04-25T02:08:22;8.10;99.90
20155;DHT22;10238;49.556;10.956;2023-04-25T02:11:12;8.10;99.90
20155;DHT22;10238;49.556;10.956;2023-04-25T02:14:01;8.10;99.90
20155;DHT22;10238;49.556;10.956;2023-04-25T02:16:49;8.10;99.90
20155;DHT22;10238;49.556;10.956;2023-04-25T02:19:37;8.10;99.90
20155;DHT22;10238;49.556;10.956;2023-04-25T02:22:25;8.00;99.90
20155;DHT22;10238;49.556;10.956;2023-04-25T02:25:16;8.00;99.90
20155;DHT22;10238;49.556;10.956;2023-04-25T02:28:03;8.00;99.90
20155;DHT22;10238;49.556;10.956;2023-04-25T02:30:52;8.00;99.90
20155;DHT22;10238;49.556;10.956;2023-04-25T02:33:40;7.90;99.90
20155;DHT22;10238;49.556;10.956;2023-04-25T02:36:28;7.90;99.90
20155;DHT22;10238;49.556;10.956;2023-04-25T02:39:18;7.80;99.90
20155;DHT22;10238;49.556;10.956;2023-04-25T02:42:07;7.80;99.90
20155;DHT22;10238;49.556;10.956;2023-04-25T02:44:57;7.70;99.90
20155;DHT22;10238;49.556;10.956;2023-04-25T02:47:47;7.70;99.90
20155;DHT22;10238;49.556;10.956;2023-04-25T02:50:34;7.70;99.90
20155;DHT22;10238;49.556;10.956;2023-04-25T02:53:22;7.60;99.90
20155;DHT22;10238;49.556;10.956;2023-04-25T02:56:10;7.60;99.90
20155;DHT22;10238;49.556;10.956;2023-04-25T02:58:57;7.60;99.90
20155;DHT22;10238;49.556;10.956;2023-04-25T03:01:47;7.60;99.90
20155;DHT22;10238;49.556;10.956;2023-04-25T03:04:36;7.50;99.90
20155;DHT22;10238;49.556;10.956;2023-04-25T03:07:24;7.50;99.90
20155;DHT22;10238;49.556;10.956;2023-04-25T03:10:12;7.50;99.90
20155;DHT22;10238;49.556;10.956;2023-04-25T03:13:00;7.40;99.90
20155;DHT22;10238;49.556;10.956;2023-04-25T03:15:47;7.40;99.90
20155;DHT22;10238;49.556;10.956;2023-04-25T03:18:35;7.40;99.90
20155;DHT22;10238;49.556;10.956;2023-04-25T03:21:24;7.20;99.90
20155;DHT22;10238;49.556;10.956;2023-04-25T03:24:12;7.20;99.90
20155;DHT22;10238;49.556;10.956;2023-04-25T03:26:59;7.20;99.90
20155;DHT22;10238;49.556;10.956;2023-04-25T03:29:47;7.20;99.90
20155;DHT22;10238;49.556;10.956;2023-04-25T03:32:35;7.20;99.90
20155;DHT22;10238;49.556;10.956;2023-04-25T03:35:23;7.20;99.90
20155;DHT22;10238;49.556;10.956;2023-04-25T03:38:12;7.20;99.90
20155;DHT22;10238;49.556;10.956;2023-04-25T03:41:03;7.20;99.90
20155;DHT22;10238;49.556;10.956;2023-04-25T03:43:51;7.10;99.90
20155;DHT22;10238;49.556;10.956;2023-04-25T03:46:38;7.10;99.90
20155;DHT22;10238;49.556;10.956;2023-04-25T03:49:26;7.10;99.90
20155;DHT22;10238;49.556;10.956;2023-04-25T03:52:13;7.10;99.90
20155;DHT22;10238;49.556;10.956;2023-04-25T03:55:03;7.10;99.90
20155;DHT22;10238;49.556;10.956;2023-04-25T03:57:52;7.10;99.90
20155;DHT22;10238;49.556;10.956;2023-04-25T04:00:39;7.20;99.90
20155;DHT22;10238;49.556;10.956;2023-04-25T04:03:27;7.20;99.90
20155;DHT22;10238;49.556;10.956;2023-04-25T04:06:15;7.30;99.90
20155;DHT22;10238;49.556;10.956;2023-04-25T04:09:02;7.30;99.90
20155;DHT22;10238;49.556;10.956;2023-04-25T04:11:52;7.30;99.90
20155;DHT22;10238;49.556;10.956;2023-04-25T04:14:40;7.40;99.90
20155;DHT22;10238;49.556;10.956;2023-04-25T04:17:28;7.40;99.90
20155;DHT22;10238;49.556;10.956;2023-04-25T04:20:16;7.40;99.90
20155;DHT22;10238;49.556;10.956;2023-04-25T04:23:03;7.40;99.90
20155;DHT22;10238;49.556;10.956;2023-04-25T04:25:51;7.50;99.90
20155;DHT22;10238;49.556;10.956;2023-04-25T04:28:41;7.50;99.90
20155;DHT22;10238;49.556;10.956;2023-04-25T04:31:30;7.50;99.90
20155;DHT22;10238;49.556;10.956;2023-04-25T04:34:19;7.50;99.90
20155;DHT22;10238;49.556;10.956;2023-04-25T04:37:07;7.60;99.90
20155;DHT22;10238;49.556;10.956;2023-04-25T04:39:55;7.50;99.90
20155;DHT22;10238;49.556;10.956;2023-04-25T04:42:44;7.60;99.90
20155;DHT22;10238;49.556;10.956;2023-04-25T04:45:34;7.60;99.90
20155;DHT22;10238;49.556;10.956;2023-04-25T04:48:22;7.60;99.90
20155;DHT22;10238;49.556;10.956;2023-04-25T04:51:10;7.60;99.90
20155;DHT22;10238;49.556;10.956;2023-04-25T04:53:58;7.70;99.90
20155;DHT22;10238;49.556;10.956;2023-04-25T04:56:48;7.60;99.90
20155;DHT22;10238;49.556;10.956;2023-04-25T04:59:36;7.70;99.90
20155;DHT22;10238;49.556;10.956;2023-04-25T05:02:25;7.70;99.90
20155;DHT22;10238;49.556;10.956;2023-04-25T05:05:13;7.70;99.90
20155;DHT22;10238;49.556;10.956;2023-04-25T05:08:01;7.70;99.90
20155;DHT22;10238;49.556;10.956;2023-04-25T05:10:48;7.70;99.90
20155;DHT22;10238;49.556;10.956;2023-04-25T05:13:39;7.80;99.90
20155;DHT22;10238;49.556;10.956;2023-04-25T05:16:28;7.80;99.90
20155;DHT22;10238;49.556;10.956;2023-04-25T05:19:17;7.80;99.90
20155;DHT22;10238;49.556;10.956;2023-04-25T05:22:05;7.80;99.90
20155;DHT22;10238;49.556;10.956;2023-04-25T05:24:52;7.80;99.90
20155;DHT22;10238;49.556;10.956;2023-04-25T05:27:41;7.80;99.90
20155;DHT22;10238;49.556;10.956;2023-04-25T05:30:29;7.80;99.90
20155;DHT22;10238;49.556;10.956;2023-04-25T05:33:16;7.90;99.90
20155;DHT22;10238;49.556;10.956;2023-04-25T05:36:07;7.80;99.90
20155;DHT22;10238;49.556;10.956;2023-04-25T05:38:55;7.90;99.90
20155;DHT22;10238;49.556;10.956;2023-04-25T05:41:43;7.90;99.90
20155;DHT22;10238;49.556;10.956;2023-04-25T05:44:31;7.90;99.90
20155;DHT22;10238;49.556;10.956;2023-04-25T05:47:19;7.90;99.90
20155;DHT22;10238;49.556;10.956;2023-04-25T05:50:08;8.00;99.90
20155;DHT22;10238;49.556;10.956;2023-04-25T05:52:57;8.00;99.90
20155;DHT22;10238;49.556;10.956;2023-04-25T05:55:45;7.90;99.90
20155;DHT22;10238;49.556;10.956;2023-04-25T05:58:33;8.00;99.90
20155;DHT22;10238;49.556;10.956;2023-04-25T06:01:21;8.00;99.90
20155;DHT22;10238;49.556;10.956;2023-04-25T06:04:10;8.00;99.90
20155;DHT22;10238;49.556;10.956;2023-04-25T06:06:58;8.00;99.90
20155;DHT22;10238;49.556;10.956;2023-04-25T06:09:47;7.90;99.90
20155;DHT22;10238;49.556;10.956;2023-04-25T06:12:35;8.00;99.90
20155;DHT22;10238;49.556;10.956;2023-04-25T06:15:25;8.00;99.90
20155;DHT22;10238;49.556;10.956;2023-04-25T06:18:14;8.00;99.90
20155;DHT22;10238;49.556;10.956;2023-04-25T06:21:01;8.00;99.90
20155;DHT22;10238;49.556;10.956;2023-04-25T06:23:50;8.00;99.90
20155;DHT22;10238;49.556;10.956;2023-04-25T06:26:39;8.10;99.90
20155;DHT22;10238;49.556;10.956;2023-04-25T06:29:26;8.00;99.90
20155;DHT22;10238;49.556;10.956;2023-04-25T06:32:14;8.10;99.90
20155;DHT22;10238;49.556;10.956;2023-04-25T06:35:04;8.10;99.90
20155;DHT22;10238;49.556;10.956;2023-04-25T06:37:53;8.10;99.90
20155;DHT22;10238;49.556;10.956;2023-04-25T06:40:40;8.20;99.90
20155;DHT22;10238;49.556;10.956;2023-04-25T06:43:29;8.30;99.90
20155;DHT22;10238;49.556;10.956;2023-04-25T06:46:19;8.30;99.90
20155;DHT22;10238;49.556;10.956;2023-04-25T06:49:06;8.30;99.90
20155;DHT22;10238;49.556;10.956;2023-04-25T06:51:54;8.40;99.90
20155;DHT22;10238;49.556;10.956;2023-04-25T06:54:42;8.50;99.90
20155;DHT22;10238;49.556;10.956;2023-04-25T06:57:29;8.40;99.90
20155;DHT22;10238;49.556;10.956;2023-04-25T07:00:21;8.40;99.90
20155;DHT22;10238;49.556;10.956;2023-04-25T07:03:09;8.40;99.90
20155;DHT22;10238;49.556;10.956;2023-04-25T07:05:57;8.40;99.90
20155;DHT22;10238;49.556;10.956;2023-04-25T07:08:44;8.40;99.90
20155;DHT22;10238;49.556;10.956;2023-04-25T07:11:32;8.40;99.90
20155;DHT22;10238;49.556;10.956;2023-04-25T07:14:19;8.40;99.90
20155;DHT22;10238;49.556;10.956;2023-04-25T07:17:10;8.40;99.90
20155;DHT22;10238;49.556;10.956;2023-04-25T07:19:58;8.30;99.90
20155;DHT22;10238;49.556;10.956;2023-04-25T07:22:45;8.30;99.90
20155;DHT22;10238;49.556;10.956;2023-04-25T07:25:33;8.30;99.90
20155;DHT22;10238;49.556;10.956;2023-04-25T07:28:21;8.30;99.90
20155;DHT22;10238;49.556;10.956;2023-04-25T07:31:08;8.40;99.90
20155;DHT22;10238;49.556;10.956;2023-04-25T07:33:58;8.40;99.90
20155;DHT22;10238;49.556;10.956;2023-04-25T07:36:47;8.40;99.90
20155;DHT22;10238;49.556;10.956;2023-04-25T07:39:35;8.40;99.90
20155;DHT22;10238;49.556;10.956;2023-04-25T07:42:23;8.40;99.90
20155;DHT22;10238;49.556;10.956;2023-04-25T07:45:13;8.40;99.90
20155;DHT22;10238;49.556;10.956;2023-04-25T07:48:01;8.50;99.90
20155;DHT22;10238;49.556;10.956;2023-04-25T07:50:51;8.50;99.90
20155;DHT22;10238;49.556;10.956;2023-04-25T07:53:38;8.50;99.90
20155;DHT22;10238;49.556;10.956;2023-04-25T07:56:26;8.60;99.90
20155;DHT22;10238;49.556;10.956;2023-04-25T07:59:24;8.70;99.90
20155;DHT22;10238;49.556;10.956;2023-04-25T08:02:14;8.80;99.90
20155;DHT22;10238;49.556;10.956;2023-04-25T08:05:03;8.90;99.90
20155;DHT22;10238;49.556;10.956;2023-04-25T08:07:53;9.00;99.90
20155;DHT22;10238;49.556;10.956;2023-04-25T08:10:41;9.10;99.90
20155;DHT22;10238;49.556;10.956;2023-04-25T08:13:32;9.30;99.90
20155;DHT22;10238;49.556;10.956;2023-04-25T08:16:19;9.40;99.90
20155;DHT22;10238;49.556;10.956;2023-04-25T08:19:07;9.50;99.90
20155;DHT22;10238;49.556;10.956;2023-04-25T08:21:54;9.70;99.90
20155;DHT22;10238;49.556;10.956;2023-04-25T08:24:44;9.80;99.90
20155;DHT22;10238;49.556;10.956;2023-04-25T08:27:32;9.90;99.90
20155;DHT22;10238;49.556;10.956;2023-04-25T08:30:19;10.00;99.90
20155;DHT22;10238;49.556;10.956;2023-04-25T08:33:08;10.10;99.90
20155;DHT22;10238;49.556;10.956;2023-04-25T08:35:57;10.20;99.90
20155;DHT22;10238;49.556;10.956;2023-04-25T08:38:45;10.40;99.90
20155;DHT22;10238;49.556;10.956;2023-04-25T08:41:36;10.50;99.90
20155;DHT22;10238;49.556;10.956;2023-04-25T08:44:24;10.60;99.90
20155;DHT22;10238;49.556;10.956;2023-04-25T08:47:13;10.60;99.90
20155;DHT22;10238;49.556;10.956;2023-04-25T08:50:05;10.70;99.90
20155;DHT22;10238;49.556;10.956;2023-04-25T08:52:54;10.70;99.90
20155;DHT22;10238;49.556;10.956;2023-04-25T08:55:46;10.80;99.90
20155;DHT22;10238;49.556;10.956;2023-04-25T08:58:35;10.80;99.90
20155;DHT22;10238;49.556;10.956;2023-04-25T09:01:24;10.80;99.90
20155;DHT22;10238;49.556;10.956;2023-04-25T09:04:12;10.90;99.90
20155;DHT22;10238;49.556;10.956;2023-04-25T09:07:03;10.90;99.90
20155;DHT22;10238;49.556;10.956;2023-04-25T09:09:51;11.10;99.90
20155;DHT22;10238;49.556;10.956;2023-04-25T09:12:39;11.30;99.90
20155;DHT22;10238;49.556;10.956;2023-04-25T09:15:28;11.60;99.90
20155;DHT22;10238;49.556;10.956;2023-04-25T09:18:22;12.00;99.90
20155;DHT22;10238;49.556;10.956;2023-04-25T09:21:15;12.40;99.90
20155;DHT22;10238;49.556;10.956;2023-04-25T09:24:03;12.80;99.90
20155;DHT22;10238;49.556;10.956;2023-04-25T09:26:51;13.20;99.90
20155;DHT22;10238;49.556;10.956;2023-04-25T09:29:40;13.70;99.90
20155;DHT22;10238;49.556;10.956;2023-04-25T09:32:29;14.10;99.90
20155;DHT22;10238;49.556;10.956;2023-04-25T09:35:23;14.40;99.90
20155;DHT22;10238;49.556;10.956;2023-04-25T09:38:14;15.10;99.90
20155;DHT22;10238;49.556;10.956;2023-04-25T09:41:04;15.30;99.90
20155;DHT22;10238;49.556;10.956;2023-04-25T09:44:07;15.60;99.90
20155;DHT22;10238;49.556;10.956;2023-04-25T09:47:33;15.90;99.90
20155;DHT22;10238;49.556;10.956;2023-04-25T09:50:25;16.10;99.90
20155;DHT22;10238;49.556;10.956;2023-04-25T09:53:13;16.10;99.90
20155;DHT22;10238;49.556;10.956;2023-04-25T09:56:04;16.00;99.90
20155;DHT22;10238;49.556;10.956;2023-04-25T09:58:53;16.00;99.90
20155;DHT22;10238;49.556;10.956;2023-04-25T10:01:43;16.00;99.90
20155;DHT22;10238;49.556;10.956;2023-04-25T10:04:35;16.00;99.90
20155;DHT22;10238;49.556;10.956;2023-04-25T10:07:24;16.20;99.90
20155;DHT22;10238;49.556;10.956;2023-04-25T10:10:16;16.30;99.90
20155;DHT22;10238;49.556;10.956;2023-04-25T10:13:06;16.70;99.90
20155;DHT22;10238;49.556;10.956;2023-04-25T10:15:54;16.90;99.90
20155;DHT22;10238;49.556;10.956;2023-04-25T10:18:44;17.20;99.90
20155;DHT22;10238;49.556;10.956;2023-04-25T10:21:34;17.40;99.90
20155;DHT22;10238;49.556;10.956;2023-04-25T10:24:24;17.50;99.90
20155;DHT22;10238;49.556;10.956;2023-04-25T10:27:14;17.80;99.90
20155;DHT22;10238;49.556;10.956;2023-04-25T10:30:02;17.70;99.90
20155;DHT22;10238;49.556;10.956;2023-04-25T10:32:54;17.70;99.90
20155;DHT22;10238;49.556;10.956;2023-04-25T10:35:45;17.90;99.90
20155;DHT22;10238;49.556;10.956;2023-04-25T10:38:34;18.20;99.90
20155;DHT22;10238;49.556;10.956;2023-04-25T10:41:24;18.30;99.90
20155;DHT22;10238;49.556;10.956;2023-04-25T10:44:11;18.50;99.90
20155;DHT22;10238;49.556;10.956;2023-04-25T10:47:01;18.70;99.90
20155;DHT22;10238;49.556;10.956;2023-04-25T10:49:51;18.60;99.90
20155;DHT22;10238;49.556;10.956;2023-04-25T10:52:39;18.40;99.90
20155;DHT22;10238;49.556;10.956;2023-04-25T10:55:51;18.40;99.90
20155;DHT22;10238;49.556;10.956;2023-04-25T10:58:42;18.40;99.90
20155;DHT22;10238;49.556;10.956;2023-04-25T11:01:35;18.20;99.90
20155;DHT22;10238;49.556;10.956;2023-04-25T11:04:25;18.10;99.90
20155;DHT22;10238;49.556;10.956;2023-04-25T11:07:22;18.10;99.90
20155;DHT22;10238;49.556;10.956;2023-04-25T11:10:16;18.00;99.90
20155;DHT22;10238;49.556;10.956;2023-04-25T11:13:05;18.00;99.90
20155;DHT22;10238;49.556;10.956;2023-04-25T11:15:53;17.90;99.90
20155;DHT22;10238;49.556;10.956;2023-04-25T11:18:58;17.90;99.90
20155;DHT22;10238;49.556;10.956;2023-04-25T11:21:46;18.00;99.90
20155;DHT22;10238;49.556;10.956;2023-04-25T11:24:35;17.90;99.90
20155;DHT22;10238;49.556;10.956;2023-04-25T11:27:23;17.90;99.90
20155;DHT22;10238;49.556;10.956;2023-04-25T11:30:14;17.90;99.90
20155;DHT22;10238;49.556;10.956;2023-04-25T11:33:03;17.80;99.90
20155;DHT22;10238;49.556;10.956;2023-04-25T11:35:53;17.70;99.90
20155;DHT22;10238;49.556;10.956;2023-04-25T11:38:41;17.90;99.40
20155;DHT22;10238;49.556;10.956;2023-04-25T11:41:30;18.00;99.30
20155;DHT22;10238;49.556;10.956;2023-04-25T11:44:19;18.00;98.90
20155;DHT22;10238;49.556;10.956;2023-04-25T11:47:09;17.90;99.00
20155;DHT22;10238;49.556;10.956;2023-04-25T11:49:58;18.00;98.50
20155;DHT22;10238;49.556;10.956;2023-04-25T11:52:47;18.00;98.00
20155;DHT22;10238;49.556;10.956;2023-04-25T11:55:37;17.90;97.80
20155;DHT22;10238;49.556;10.956;2023-04-25T11:58:26;17.80;97.60
20155;DHT22;10238;49.556;10.956;2023-04-25T12:01:25;17.70;97.80
20155;DHT22;10238;49.556;10.956;2023-04-25T12:04:20;17.60;98.20
20155;DHT22;10238;49.556;10.956;2023-04-25T12:07:10;17.50;98.10
20155;DHT22;10238;49.556;10.956;2023-04-25T12:09:58;17.50;98.20
20155;DHT22;10238;49.556;10.956;2023-04-25T12:12:47;17.40;98.00
20155;DHT22;10238;49.556;10.956;2023-04-25T12:15:35;17.40;98.30
20155;DHT22;10238;49.556;10.956;2023-04-25T12:18:27;17.40;98.40
20155;DHT22;10238;49.556;10.956;2023-04-25T12:21:17;17.40;98.70
20155;DHT22;10238;49.556;10.956;2023-04-25T12:24:11;17.30;98.20
20155;DHT22;10238;49.556;10.956;2023-04-25T12:27:02;17.30;98.10
20155;DHT22;10238;49.556;10.956;2023-04-25T12:29:52;17.10;97.70
20155;DHT22;10238;49.556;10.956;2023-04-25T12:32:40;17.00;97.50
20155;DHT22;10238;49.556;10.956;2023-04-25T12:35:28;16.90;98.00
20155;DHT22;10238;49.556;10.956;2023-04-25T12:38:25;16.80;98.10
20155;DHT22;10238;49.556;10.956;2023-04-25T12:41:15;16.70;98.50
20155;DHT22;10238;49.556;10.956;2023-04-25T12:44:02;16.60;98.30
20155;DHT22;10238;49.556;10.956;2023-04-25T12:46:51;16.50;98.50
20155;DHT22;10238;49.556;10.956;2023-04-25T12:49:39;16.40;98.50
20155;DHT22;10238;49.556;10.956;2023-04-25T12:52:27;16.40;98.70
20155;DHT22;10238;49.556;10.956;2023-04-25T12:55:16;16.40;98.20
20155;DHT22;10238;49.556;10.956;2023-04-25T12:58:03;16.40;98.10
20155;DHT22;10238;49.556;10.956;2023-04-25T13:00:51;16.60;98.20
20155;DHT22;10238;49.556;10.956;2023-04-25T13:03:39;16.70;98.30
20155;DHT22;10238;49.556;10.956;2023-04-25T13:06:27;16.80;98.00
20155;DHT22;10238;49.556;10.956;2023-04-25T13:09:16;16.90;98.10
20155;DHT22;10238;49.556;10.956;2023-04-25T13:12:05;17.00;98.50
20155;DHT22;10238;49.556;10.956;2023-04-25T13:14:53;17.10;98.00
20155;DHT22;10238;49.556;10.956;2023-04-25T13:17:42;17.10;97.50
20155;DHT22;10238;49.556;10.956;2023-04-25T13:20:30;17.00;97.40
20155;DHT22;10238;49.556;10.956;2023-04-25T13:23:18;17.00;97.20
20155;DHT22;10238;49.556;10.956;2023-04-25T13:26:07;16.90;97.70
20155;DHT22;10238;49.556;10.956;2023-04-25T13:28:56;16.80;98.00
20155;DHT22;10238;49.556;10.956;2023-04-25T13:31:44;16.70;97.80
20155;DHT22;10238;49.556;10.956;2023-04-25T13:34:32;16.60;97.30
20155;DHT22;10238;49.556;10.956;2023-04-25T13:37:20;16.30;97.50
20155;DHT22;10238;49.556;10.956;2023-04-25T13:40:11;16.20;97.60
20155;DHT22;10238;49.556;10.956;2023-04-25T13:42:59;16.10;97.70
20155;DHT22;10238;49.556;10.956;2023-04-25T13:45:48;15.90;97.70
20155;DHT22;10238;49.556;10.956;2023-04-25T13:48:36;15.80;97.60
20155;DHT22;10238;49.556;10.956;2023-04-25T13:51:23;15.70;97.70
20155;DHT22;10238;49.556;10.956;2023-04-25T13:54:12;15.70;98.00
20155;DHT22;10238;49.556;10.956;2023-04-25T13:56:59;15.70;98.20
20155;DHT22;10238;49.556;10.956;2023-04-25T13:59:47;15.70;98.40
20155;DHT22;10238;49.556;10.956;2023-04-25T14:02:36;15.60;98.50
20155;DHT22;10238;49.556;10.956;2023-04-25T14:05:25;15.60;98.30
20155;DHT22;10238;49.556;10.956;2023-04-25T14:08:13;15.60;98.40
20155;DHT22;10238;49.556;10.956;2023-04-25T14:11:00;15.60;98.40
20155;DHT22;10238;49.556;10.956;2023-04-25T14:13:48;15.50;98.40
20155;DHT22;10238;49.556;10.956;2023-04-25T14:16:36;15.30;98.60
20155;DHT22;10238;49.556;10.956;2023-04-25T14:19:24;15.20;98.70
20155;DHT22;10238;49.556;10.956;2023-04-25T14:22:12;15.00;98.90
20155;DHT22;10238;49.556;10.956;2023-04-25T14:25:00;14.90;99.20
20155;DHT22;10238;49.556;10.956;2023-04-25T14:27:48;14.80;99.90
20155;DHT22;10238;49.556;10.956;2023-04-25T14:30:36;14.60;99.60
20155;DHT22;10238;49.556;10.956;2023-04-25T14:33:24;14.60;99.70
20155;DHT22;10238;49.556;10.956;2023-04-25T14:36:13;14.50;99.90
20155;DHT22;10238;49.556;10.956;2023-04-25T14:39:01;14.40;99.90
20155;DHT22;10238;49.556;10.956;2023-04-25T14:41:51;14.30;99.90
20155;DHT22;10238;49.556;10.956;2023-04-25T14:44:38;14.30;99.90
20155;DHT22;10238;49.556;10.956;2023-04-25T14:47:26;14.20;99.90
20155;DHT22;10238;49.556;10.956;2023-04-25T14:50:14;14.10;99.90
20155;DHT22;10238;49.556;10.956;2023-04-25T14:53:02;14.00;99.90
20155;DHT22;10238;49.556;10.956;2023-04-25T14:55:50;13.90;99.90
20155;DHT22;10238;49.556;10.956;2023-04-25T14:58:39;13.90;99.90
20155;DHT22;10238;49.556;10.956;2023-04-25T15:01:27;13.80;99.90
20155;DHT22;10238;49.556;10.956;2023-04-25T15:04:15;13.80;99.90
20155;DHT22;10238;49.556;10.956;2023-04-25T15:07:03;13.70;99.90
20155;DHT22;10238;49.556;10.956;2023-04-25T15:09:52;13.60;99.90
20155;DHT22;10238;49.556;10.956;2023-04-25T15:12:42;13.50;99.90
20155;DHT22;10238;49.556;10.956;2023-04-25T15:15:32;13.50;99.90
20155;DHT22;10238;49.556;10.956;2023-04-25T15:18:21;13.40;99.90
20155;DHT22;10238;49.556;10.956;2023-04-25T15:21:09;13.30;99.90
20155;DHT22;10238;49.556;10.956;2023-04-25T15:23:57;13.20;99.90
20155;DHT22;10238;49.556;10.956;2023-04-25T15:26:46;13.10;99.90
20155;DHT22;10238;49.556;10.956;2023-04-25T15:29:34;13.00;99.90
20155;DHT22;10238;49.556;10.956;2023-04-25T15:32:21;13.00;99.90
20155;DHT22;10238;49.556;10.956;2023-04-25T15:35:10;13.00;99.90
20155;DHT22;10238;49.556;10.956;2023-04-25T15:37:58;13.00;99.90
20155;DHT22;10238;49.556;10.956;2023-04-25T15:40:45;13.00;99.90
20155;DHT22;10238;49.556;10.956;2023-04-25T15:43:35;13.00;99.90
20155;DHT22;10238;49.556;10.956;2023-04-25T15:46:23;13.10;99.90
20155;DHT22;10238;49.556;10.956;2023-04-25T15:49:12;13.10;99.90
20155;DHT22;10238;49.556;10.956;2023-04-25T15:51:59;13.20;99.90
20155;DHT22;10238;49.556;10.956;2023-04-25T15:54:47;13.10;99.90
20155;DHT22;10238;49.556;10.956;2023-04-25T15:57:36;13.30;99.90
20155;DHT22;10238;49.556;10.956;2023-04-25T16:00:25;13.30;99.90
20155;DHT22;10238;49.556;10.956;2023-04-25T16:03:13;13.40;99.90
20155;DHT22;10238;49.556;10.956;2023-04-25T16:06:01;13.40;99.90
20155;DHT22;10238;49.556;10.956;2023-04-25T16:08:50;13.50;99.90
20155;DHT22;10238;49.556;10.956;2023-04-25T16:11:38;13.60;99.90
20155;DHT22;10238;49.556;10.956;2023-04-25T16:14:25;13.60;99.90
20155;DHT22;10238;49.556;10.956;2023-04-25T16:17:15;13.60;99.90
20155;DHT22;10238;49.556;10.956;2023-04-25T16:20:03;13.50;99.90
20155;DHT22;10238;49.556;10.956;2023-04-25T16:22:54;13.40;99.90
20155;DHT22;10238;49.556;10.956;2023-04-25T16:25:42;13.40;99.90
20155;DHT22;10238;49.556;10.956;2023-04-25T16:28:30;13.30;99.90
20155;DHT22;10238;49.556;10.956;2023-04-25T16:31:17;13.20;99.90
20155;DHT22;10238;49.556;10.956;2023-04-25T16:34:07;13.20;99.90
20155;DHT22;10238;49.556;10.956;2023-04-25T16:36:55;13.10;99.90
20155;DHT22;10238;49.556;10.956;2023-04-25T16:39:44;13.00;99.90
20155;DHT22;10238;49.556;10.956;2023-04-25T16:42:32;13.00;99.90
20155;DHT22;10238;49.556;10.956;2023-04-25T16:45:20;12.90;99.90
20155;DHT22;10238;49.556;10.956;2023-04-25T16:48:09;12.80;99.90
20155;DHT22;10238;49.556;10.956;2023-04-25T16:50:59;12.80;99.90
20155;DHT22;10238;49.556;10.956;2023-04-25T16:53:47;12.70;99.90
20155;DHT22;10238;49.556;10.956;2023-04-25T16:56:34;12.60;99.90
20155;DHT22;10238;49.556;10.956;2023-04-25T16:59:22;12.60;99.90
20155;DHT22;10238;49.556;10.956;2023-04-25T17:02:11;12.50;99.90
20155;DHT22;10238;49.556;10.956;2023-04-25T17:04:59;12.40;99.90
20155;DHT22;10238;49.556;10.956;2023-04-25T17:07:48;12.30;99.90
20155;DHT22;10238;49.556;10.956;2023-04-25T17:10:37;12.30;99.90
20155;DHT22;10238;49.556;10.956;2023-04-25T17:13:24;12.20;99.90
20155;DHT22;10238;49.556;10.956;2023-04-25T17:16:18;12.10;99.90
20155;DHT22;10238;49.556;10.956;2023-04-25T17:19:08;12.10;99.90
20155;DHT22;10238;49.556;10.956;2023-04-25T17:21:56;12.00;99.90
20155;DHT22;10238;49.556;10.956;2023-04-25T17:24:46;12.00;99.90
20155;DHT22;10238;49.556;10.956;2023-04-25T17:27:34;11.90;99.90
20155;DHT22;10238;49.556;10.956;2023-04-25T17:30:22;11.80;99.90
20155;DHT22;10238;49.556;10.956;2023-04-25T17:33:09;11.70;99.90
20155;DHT22;10238;49.556;10.956;2023-04-25T17:35:57;11.70;99.90
20155;DHT22;10238;49.556;10.956;2023-04-25T17:38:44;11.70;99.90